createdAt,value
2023-05-21T00:00:30.348Z,6.82
2023-05-21T00:02:59.107Z,7.80
2023-05-21T00:05:26.568Z,7.15
2023-05-21T00:07:54.866Z,7.30
2023-05-21T00:10:22.580Z,7.40
2023-05-21T00:12:49.783Z,6.90
2023-05-21T00:15:17.038Z,10.95
2023-05-21T00:17:46.078Z,10.27
2023-05-21T00:20:13.309Z,7.55
2023-05-21T00:22:42.320Z,6.72
2023-05-21T00:25:11.378Z,7.20
2023-05-21T00:27:39.378Z,7.28
2023-05-21T00:30:07.271Z,7.10
2023-05-21T00:32:34.934Z,7.82
2023-05-21T00:35:02.934Z,7.97
2023-05-21T00:37:34.360Z,7.97
2023-05-21T00:40:02.241Z,7.72
2023-05-21T00:42:30.714Z,8.88
2023-05-21T00:44:58.274Z,8.25
2023-05-21T00:47:29.607Z,7.45
2023-05-21T00:49:56.950Z,8.55
2023-05-21T00:52:26.787Z,7.03
2023-05-21T00:54:54.305Z,6.50
2023-05-21T00:57:23.927Z,6.87
2023-05-21T00:59:53.060Z,7.12
2023-05-21T01:02:20.771Z,6.72
2023-05-21T01:04:48.081Z,7.00
2023-05-21T01:07:15.209Z,6.95
2023-05-21T01:09:43.028Z,6.97
2023-05-21T01:12:11.157Z,6.32
2023-05-21T01:14:39.375Z,6.85
2023-05-21T01:17:10.400Z,7.53
2023-05-21T01:19:37.853Z,6.78
2023-05-21T01:22:07.360Z,7.60
2023-05-21T01:24:35.469Z,7.05
2023-05-21T01:27:05.300Z,7.18
2023-05-21T01:29:32.418Z,7.12
2023-05-21T01:32:16.594Z,6.18
2023-05-21T01:34:57.048Z,7.35
2023-05-21T01:37:31.640Z,6.37
2023-05-21T01:40:05.148Z,6.93
2023-05-21T01:42:34.502Z,6.87
2023-05-21T01:45:06.188Z,7.03
2023-05-21T01:47:34.886Z,6.82
2023-05-21T01:50:03.736Z,6.47
2023-05-21T01:52:30.938Z,6.87
2023-05-21T01:55:00.359Z,6.72
2023-05-21T01:57:27.600Z,7.22
2023-05-21T01:59:55.269Z,7.03
2023-05-21T02:02:22.773Z,7.07
2023-05-21T02:04:50.400Z,6.25
2023-05-21T02:07:18.426Z,6.68
2023-05-21T02:09:45.703Z,7.00
2023-05-21T02:12:13.375Z,7.87
2023-05-21T02:14:40.603Z,7.03
2023-05-21T02:17:08.185Z,6.37
2023-05-21T02:19:35.852Z,6.70
2023-05-21T02:22:03.444Z,7.55
2023-05-21T02:24:31.359Z,6.37
2023-05-21T02:26:58.657Z,6.40
2023-05-21T02:29:26.162Z,7.30
2023-05-21T02:31:53.371Z,6.50
2023-05-21T02:34:20.858Z,6.37
2023-05-21T02:36:48.542Z,6.28
2023-05-21T02:39:15.713Z,6.32
2023-05-21T02:41:42.934Z,11.23
2023-05-21T02:44:10.995Z,6.68
2023-05-21T02:46:38.190Z,6.28
2023-05-21T02:49:05.582Z,6.97
2023-05-21T02:51:33.127Z,6.18
2023-05-21T02:54:00.371Z,6.75
2023-05-21T02:56:27.650Z,6.68
2023-05-21T02:58:55.127Z,6.60
2023-05-21T03:01:22.601Z,6.55
2023-05-21T03:03:50.144Z,6.07
2023-05-21T03:06:17.725Z,8.68
2023-05-21T03:08:44.962Z,7.55
2023-05-21T03:11:12.165Z,7.18
2023-05-21T03:13:39.884Z,9.20
2023-05-21T03:16:07.234Z,7.10
2023-05-21T03:18:34.465Z,7.37
2023-05-21T03:21:02.085Z,6.75
2023-05-21T03:23:29.279Z,5.90
2023-05-21T03:25:56.488Z,7.00
2023-05-21T03:28:24.300Z,8.02
2023-05-21T03:30:52.180Z,7.15
2023-05-21T03:33:20.557Z,7.25
2023-05-21T03:35:48.066Z,6.35
2023-05-21T03:38:15.946Z,8.73
2023-05-21T03:40:43.202Z,9.18
2023-05-21T03:43:10.659Z,6.78
2023-05-21T03:45:38.203Z,6.40
2023-05-21T03:48:07.382Z,6.18
2023-05-21T03:50:35.039Z,6.53
2023-05-21T03:53:02.234Z,6.55
2023-05-21T03:55:30.397Z,5.68
2023-05-21T03:57:58.968Z,6.25
2023-05-21T04:00:26.250Z,5.50
2023-05-21T04:02:54.452Z,5.68
2023-05-21T04:05:21.667Z,5.97
2023-05-21T04:07:50.056Z,6.72
2023-05-21T04:10:17.684Z,6.22
2023-05-21T04:12:44.871Z,5.95
2023-05-21T04:15:12.555Z,5.43
2023-05-21T04:17:40.494Z,5.90
2023-05-21T04:20:08.378Z,5.25
2023-05-21T04:22:35.707Z,5.28
2023-05-21T04:25:03.450Z,5.22
2023-05-21T04:27:30.937Z,5.72
2023-05-21T04:29:58.476Z,5.25
2023-05-21T04:32:26.028Z,5.10
2023-05-21T04:34:53.269Z,5.87
2023-05-21T04:37:20.431Z,5.28
2023-05-21T04:39:48.098Z,5.47
2023-05-21T04:42:15.327Z,5.00
2023-05-21T04:44:44.349Z,5.12
2023-05-21T04:47:14.966Z,4.93
2023-05-21T04:49:42.386Z,4.62
2023-05-21T04:52:09.641Z,5.72
2023-05-21T04:54:38.934Z,5.12
2023-05-21T04:57:06.741Z,4.95
2023-05-21T04:59:34.814Z,5.43
2023-05-21T05:02:02.755Z,4.90
2023-05-21T05:04:29.937Z,4.62
2023-05-21T05:06:57.214Z,5.10
2023-05-21T05:09:25.278Z,5.60
2023-05-21T05:11:53.038Z,4.70
2023-05-21T05:14:20.325Z,5.32
2023-05-21T05:16:50.591Z,4.97
2023-05-21T05:19:17.966Z,4.35
2023-05-21T05:21:45.175Z,5.12
2023-05-21T05:24:12.660Z,5.03
2023-05-21T05:26:39.836Z,5.10
2023-05-21T05:29:07.042Z,4.32
2023-05-21T05:31:34.622Z,4.35
2023-05-21T05:34:02.251Z,4.85
2023-05-21T05:36:29.607Z,4.53
2023-05-21T05:38:57.107Z,4.72
2023-05-21T05:41:24.434Z,4.97
2023-05-21T05:43:51.668Z,4.50
2023-05-21T05:46:20.407Z,4.80
2023-05-21T05:48:47.662Z,4.55
2023-05-21T05:51:17.188Z,5.40
2023-05-21T05:53:45.851Z,4.43
2023-05-21T05:56:13.075Z,3.92
2023-05-21T05:58:41.124Z,4.05
2023-05-21T06:01:09.036Z,4.00
2023-05-21T06:03:36.691Z,4.10
2023-05-21T06:06:06.260Z,4.57
2023-05-21T06:08:37.343Z,4.57
2023-05-21T06:11:05.627Z,4.65
2023-05-21T06:13:32.879Z,3.90
2023-05-21T06:16:00.353Z,4.35
2023-05-21T06:18:27.902Z,4.35
2023-05-21T06:20:55.312Z,3.72
2023-05-21T06:23:22.898Z,4.07
2023-05-21T06:25:50.516Z,7.07
2023-05-21T06:28:18.283Z,3.92
2023-05-21T06:30:45.803Z,4.62
2023-05-21T06:33:13.347Z,4.25
2023-05-21T06:35:40.749Z,4.28
2023-05-21T06:38:08.234Z,5.00
2023-05-21T06:40:36.317Z,4.25
2023-05-21T06:43:05.301Z,4.45
2023-05-21T06:48:07.034Z,4.30
2023-05-21T06:50:34.404Z,4.35
2023-05-21T06:53:01.742Z,4.05
2023-05-21T06:55:29.376Z,5.12
2023-05-21T06:57:57.827Z,4.10
2023-05-21T07:00:25.494Z,4.50
2023-05-21T07:02:54.220Z,5.10
2023-05-21T07:05:21.633Z,4.75
2023-05-21T07:07:48.824Z,4.47
2023-05-21T07:10:16.502Z,4.45
2023-05-21T07:12:43.711Z,4.47
2023-05-21T07:15:11.221Z,4.47
2023-05-21T07:17:39.374Z,4.20
2023-05-21T07:20:10.193Z,4.30
2023-05-21T07:22:39.053Z,4.85
2023-05-21T07:25:08.697Z,4.80
2023-05-21T07:27:36.142Z,4.28
2023-05-21T07:30:04.038Z,4.37
2023-05-21T07:32:31.986Z,4.50
2023-05-21T07:35:02.126Z,4.82
2023-05-21T07:37:30.861Z,4.50
2023-05-21T07:39:58.796Z,4.60
2023-05-21T07:42:26.284Z,4.12
2023-05-21T07:44:53.653Z,4.55
2023-05-21T07:47:23.566Z,4.50
2023-05-21T07:49:51.123Z,4.05
2023-05-21T07:52:18.566Z,4.00
2023-05-21T07:54:46.138Z,5.25
2023-05-21T07:57:13.441Z,5.53
2023-05-21T07:59:41.950Z,4.78
2023-05-21T08:02:09.551Z,5.20
2023-05-21T08:04:40.950Z,4.15
2023-05-21T08:07:09.831Z,4.50
2023-05-21T08:09:37.453Z,4.60
2023-05-21T08:12:05.202Z,5.10
2023-05-21T08:14:32.446Z,4.70
2023-05-21T08:17:00.404Z,4.72
2023-05-21T08:19:27.891Z,4.53
2023-05-21T08:21:55.322Z,4.65
2023-05-21T08:24:24.110Z,4.97
2023-05-21T08:26:51.534Z,4.80
2023-05-21T08:29:18.827Z,4.72
2023-05-21T08:31:46.329Z,5.05
2023-05-21T08:34:13.556Z,5.20
2023-05-21T08:36:43.321Z,5.57
2023-05-21T08:39:13.109Z,5.18
2023-05-21T08:41:41.554Z,4.65
2023-05-21T08:44:12.280Z,4.20
2023-05-21T08:46:41.335Z,4.82
2023-05-21T08:49:12.208Z,3.97
2023-05-21T08:51:39.853Z,4.57
2023-05-21T08:54:08.021Z,4.68
2023-05-21T08:56:35.945Z,4.97
2023-05-21T08:59:03.419Z,5.15
2023-05-21T09:01:33.373Z,4.90
2023-05-21T09:04:18.859Z,5.80
2023-05-21T09:06:47.998Z,4.70
2023-05-21T09:09:33.208Z,4.20
2023-05-21T09:12:01.194Z,4.95
2023-05-21T09:14:28.925Z,4.70
2023-05-21T09:16:57.330Z,4.78
2023-05-21T09:19:25.049Z,4.22
2023-05-21T09:21:55.489Z,4.65
2023-05-21T09:24:23.262Z,3.90
2023-05-21T09:26:51.329Z,5.07
2023-05-21T09:29:19.135Z,4.43
2023-05-21T09:31:46.620Z,4.20
2023-05-21T09:34:14.620Z,5.10
2023-05-21T09:36:41.991Z,5.72
2023-05-21T09:39:11.267Z,6.82
2023-05-21T09:41:38.729Z,4.47
2023-05-21T09:44:05.938Z,5.18
2023-05-21T09:46:39.421Z,4.68
2023-05-21T09:49:07.528Z,5.50
2023-05-21T09:51:38.998Z,4.30
2023-05-21T09:54:06.385Z,3.92
2023-05-21T09:56:34.598Z,4.57
2023-05-21T09:59:04.412Z,4.53
2023-05-21T10:01:33.927Z,4.20
2023-05-21T10:04:07.000Z,4.25
2023-05-21T10:06:38.127Z,4.07
2023-05-21T10:09:10.648Z,4.43
2023-05-21T10:11:38.070Z,4.32
2023-05-21T10:14:12.099Z,4.00
2023-05-21T10:16:39.723Z,4.57
2023-05-21T10:19:11.049Z,4.65
2023-05-21T10:21:39.889Z,4.80
2023-05-21T10:24:09.135Z,4.55
2023-05-21T10:26:36.811Z,4.15
2023-05-21T10:29:04.244Z,4.65
2023-05-21T10:31:33.111Z,4.53
2023-05-21T10:34:00.639Z,4.10
2023-05-21T10:36:31.776Z,4.68
2023-05-21T10:39:00.716Z,5.30
2023-05-21T10:41:28.218Z,5.10
2023-05-21T10:44:20.316Z,4.30
2023-05-21T10:47:05.341Z,4.00
2023-05-21T10:49:35.851Z,4.18
2023-05-21T10:52:22.678Z,3.75
2023-05-21T10:55:05.266Z,4.05
2023-05-21T10:58:07.792Z,4.50
2023-05-21T11:00:35.228Z,4.00
2023-05-21T11:03:03.606Z,3.92
2023-05-21T11:05:41.762Z,5.10
2023-05-21T11:08:22.201Z,4.05
2023-05-21T11:10:58.972Z,4.35
2023-05-21T11:13:27.861Z,3.95
2023-05-21T11:15:57.749Z,4.07
2023-05-21T11:18:40.240Z,4.80
2023-05-21T11:21:18.592Z,4.28
2023-05-21T11:24:06.434Z,4.30
2023-05-21T11:26:48.938Z,3.80
2023-05-21T11:29:18.210Z,3.58
2023-05-21T11:31:47.242Z,4.12
2023-05-21T11:34:15.602Z,4.12
2023-05-21T11:36:49.692Z,3.62
2023-05-21T11:39:22.043Z,4.62
2023-05-21T11:41:54.125Z,4.37
2023-05-21T11:44:41.118Z,3.78
2023-05-21T11:47:10.101Z,4.37
2023-05-21T11:49:38.368Z,4.22
2023-05-21T11:52:07.091Z,4.28
2023-05-21T11:54:39.918Z,4.75
2023-05-21T11:57:08.155Z,4.37
2023-05-21T11:59:36.376Z,4.25
2023-05-21T12:02:04.166Z,4.40
2023-05-21T12:04:32.658Z,4.10
2023-05-21T12:07:05.089Z,4.28
2023-05-21T12:09:58.632Z,4.30
2023-05-21T12:12:33.050Z,4.12
2023-05-21T12:17:37.805Z,4.05
2023-05-21T12:20:08.215Z,4.15
2023-05-21T12:22:35.653Z,4.37
2023-05-21T12:25:04.343Z,4.30
2023-05-21T12:27:33.446Z,3.85
2023-05-21T12:30:02.219Z,6.32
2023-05-21T12:32:29.406Z,4.55
2023-05-21T12:34:56.556Z,4.53
2023-05-21T12:37:25.628Z,4.53
2023-05-21T12:39:59.010Z,4.70
2023-05-21T12:44:54.950Z,4.10
2023-05-21T12:47:26.585Z,4.40
2023-05-21T12:49:57.993Z,6.28
2023-05-21T12:52:25.361Z,4.90
2023-05-21T12:54:54.620Z,3.78
2023-05-21T12:57:48.388Z,4.18
2023-05-21T13:00:23.585Z,4.40
2023-05-21T13:02:51.717Z,4.70
2023-05-21T13:05:19.422Z,4.60
2023-05-21T13:07:47.639Z,4.78
2023-05-21T13:10:18.783Z,4.25
2023-05-21T13:12:46.289Z,4.00
2023-05-21T13:15:13.992Z,4.75
2023-05-21T13:17:41.459Z,4.43
2023-05-21T13:20:13.329Z,4.93
2023-05-21T13:22:48.074Z,3.97
2023-05-21T13:25:21.303Z,4.20
2023-05-21T13:27:49.684Z,4.57
2023-05-21T13:30:17.853Z,4.97
2023-05-21T13:32:45.219Z,4.25
2023-05-21T13:35:12.678Z,4.62
2023-05-21T13:37:40.957Z,4.60
2023-05-21T13:40:12.357Z,3.90
2023-05-21T13:42:40.375Z,4.28
2023-05-21T13:45:09.703Z,3.78
2023-05-21T13:47:39.983Z,4.82
2023-05-21T13:50:09.143Z,4.75
2023-05-21T13:52:36.919Z,4.62
2023-05-21T13:55:04.816Z,4.55
2023-05-21T13:57:32.577Z,4.10
2023-05-21T14:00:00.857Z,4.53
2023-05-21T14:02:28.221Z,4.62
2023-05-21T14:04:55.842Z,5.10
2023-05-21T14:07:23.139Z,4.70
2023-05-21T14:09:50.457Z,4.12
2023-05-21T14:12:18.225Z,4.20
2023-05-21T14:14:46.022Z,4.65
2023-05-21T14:17:13.225Z,5.65
2023-05-21T14:19:41.205Z,4.55
2023-05-21T14:22:08.306Z,4.55
2023-05-21T14:24:35.477Z,5.25
2023-05-21T14:27:02.935Z,3.87
2023-05-21T14:29:30.063Z,4.15
2023-05-21T14:31:57.369Z,4.22
2023-05-21T14:34:24.878Z,4.20
2023-05-21T14:36:52.073Z,4.45
2023-05-21T14:39:19.269Z,4.53
2023-05-21T14:41:46.798Z,4.30
2023-05-21T14:44:13.923Z,4.90
2023-05-21T14:46:41.139Z,5.03
2023-05-21T14:49:08.659Z,4.78
2023-05-21T14:51:35.997Z,4.40
2023-05-21T14:54:03.257Z,4.40
2023-05-21T14:56:30.766Z,4.53
2023-05-21T14:58:57.916Z,4.20
2023-05-21T15:01:25.156Z,14.57
2023-05-21T15:03:52.826Z,4.72
2023-05-21T15:06:20.129Z,4.40
2023-05-21T15:08:47.335Z,4.10
2023-05-21T15:11:14.853Z,4.87
2023-05-21T15:13:42.098Z,4.62
2023-05-21T15:16:09.331Z,4.50
2023-05-21T15:18:36.782Z,4.95
2023-05-21T15:21:05.088Z,4.18
2023-05-21T15:23:32.362Z,4.37
2023-05-21T15:25:59.821Z,4.40
2023-05-21T15:28:26.994Z,4.70
2023-05-21T15:30:54.102Z,4.30
2023-05-21T15:33:21.577Z,4.47
2023-05-21T15:35:48.891Z,4.40
2023-05-21T15:38:16.213Z,4.93
2023-05-21T15:40:44.264Z,4.28
2023-05-21T15:43:11.472Z,4.97
2023-05-21T15:45:39.110Z,4.07
2023-05-21T15:48:07.262Z,4.75
2023-05-21T15:50:35.858Z,4.50
2023-05-21T15:53:04.614Z,4.75
2023-05-21T15:55:33.371Z,4.82
2023-05-21T15:58:02.189Z,4.60
2023-05-21T16:00:29.856Z,4.35
2023-05-21T16:02:57.424Z,4.35
2023-05-21T16:05:25.698Z,3.83
2023-05-21T16:07:52.824Z,4.18
2023-05-21T16:10:21.304Z,3.95
2023-05-21T16:12:48.457Z,4.85
2023-05-21T16:15:15.717Z,4.32
2023-05-21T16:17:43.144Z,4.28
2023-05-21T16:20:11.098Z,4.57
2023-05-21T16:22:40.290Z,4.47
2023-05-21T16:25:08.165Z,5.00
2023-05-21T16:27:36.216Z,4.75
2023-05-21T16:30:04.143Z,4.28
2023-05-21T16:32:32.006Z,3.85
2023-05-21T16:34:59.261Z,4.78
2023-05-21T16:37:27.085Z,4.47
2023-05-21T16:39:54.550Z,4.45
2023-05-21T16:42:21.851Z,4.20
2023-05-21T16:44:49.020Z,4.35
2023-05-21T16:47:16.446Z,4.43
2023-05-21T16:49:43.594Z,5.25
2023-05-21T16:52:10.926Z,7.37
2023-05-21T16:54:38.468Z,6.15
2023-05-21T16:57:05.788Z,5.15
2023-05-21T16:59:32.939Z,6.75
2023-05-21T17:02:00.520Z,4.97
2023-05-21T17:04:28.081Z,4.87
2023-05-21T17:06:55.188Z,4.72
2023-05-21T17:09:22.783Z,5.18
2023-05-21T17:11:49.901Z,4.68
2023-05-21T17:14:32.616Z,4.35
2023-05-21T17:17:01.079Z,4.15
2023-05-21T17:19:28.379Z,4.15
2023-05-21T17:21:56.075Z,4.25
2023-05-21T17:24:23.684Z,4.50
2023-05-21T17:26:50.866Z,4.22
2023-05-21T17:29:18.609Z,6.05
2023-05-21T17:31:46.055Z,6.18
2023-05-21T17:34:13.285Z,4.62
2023-05-21T17:36:40.846Z,15.48
2023-05-21T17:39:08.314Z,19.92
2023-05-21T17:41:35.416Z,22.25
2023-05-21T17:44:02.755Z,15.55
2023-05-21T17:46:30.251Z,13.80
2023-05-21T17:48:57.404Z,8.77
2023-05-21T17:51:24.553Z,13.77
2023-05-21T17:53:51.902Z,9.60
2023-05-21T17:56:19.062Z,6.07
2023-05-21T17:58:46.152Z,5.37
2023-05-21T18:01:13.565Z,6.50
2023-05-21T18:03:41.254Z,5.87
2023-05-21T18:06:09.504Z,6.05
2023-05-21T18:08:37.016Z,6.32
2023-05-21T18:11:04.723Z,8.88
2023-05-21T18:13:31.931Z,5.60
2023-05-21T18:15:59.117Z,7.43
2023-05-21T18:18:26.566Z,7.05
2023-05-21T18:20:53.750Z,6.53
2023-05-21T18:23:21.038Z,8.77
2023-05-21T18:25:48.544Z,10.25
2023-05-21T18:28:15.669Z,5.95
2023-05-21T18:30:42.877Z,7.07
2023-05-21T18:33:11.173Z,6.10
2023-05-21T18:35:38.473Z,5.40
2023-05-21T18:38:09.825Z,5.70
2023-05-21T18:40:37.944Z,5.72
2023-05-21T18:43:06.344Z,6.07
2023-05-21T18:45:33.591Z,7.43
2023-05-21T18:48:01.311Z,9.80
2023-05-21T18:50:28.586Z,7.03
2023-05-21T18:52:56.225Z,6.00
2023-05-21T18:55:23.761Z,6.65
2023-05-21T18:57:51.160Z,6.55
2023-05-21T19:00:18.594Z,6.47
2023-05-21T19:02:46.747Z,7.03
2023-05-21T19:05:14.381Z,6.78
2023-05-21T19:07:41.966Z,7.70
2023-05-21T19:10:11.201Z,9.07
2023-05-21T19:12:39.530Z,6.50
2023-05-21T19:15:07.480Z,8.55
2023-05-21T19:17:36.237Z,7.22
2023-05-21T19:20:05.283Z,6.03
2023-05-21T19:22:32.768Z,10.93
2023-05-21T19:25:00.771Z,6.50
2023-05-21T19:27:29.357Z,10.23
2023-05-21T19:29:56.632Z,6.50
2023-05-21T19:32:24.113Z,14.40
2023-05-21T19:34:52.132Z,6.18
2023-05-21T19:37:19.313Z,11.45
2023-05-21T19:39:49.985Z,8.13
2023-05-21T19:42:18.826Z,6.82
2023-05-21T19:44:46.276Z,7.20
2023-05-21T19:47:13.845Z,8.07
2023-05-21T19:49:41.064Z,7.10
2023-05-21T19:52:08.209Z,7.50
2023-05-21T19:54:35.698Z,6.20
2023-05-21T19:57:03.367Z,6.37
2023-05-21T19:59:30.636Z,7.50
2023-05-21T20:01:58.053Z,7.15
2023-05-21T20:04:25.563Z,7.28
2023-05-21T20:06:52.778Z,8.25
2023-05-21T20:09:19.878Z,7.40
2023-05-21T20:11:48.200Z,7.53
2023-05-21T20:14:15.380Z,7.55
2023-05-21T20:16:42.596Z,7.22
2023-05-21T20:19:11.203Z,8.00
2023-05-21T20:21:38.425Z,8.25
2023-05-21T20:24:06.473Z,8.95
2023-05-21T20:26:36.966Z,9.82
2023-05-21T20:29:04.186Z,12.35
2023-05-21T20:31:31.712Z,9.07
2023-05-21T20:33:59.220Z,9.77
2023-05-21T20:36:27.149Z,13.02
2023-05-21T20:38:54.261Z,15.80
2023-05-21T20:41:21.865Z,9.05
2023-05-21T20:43:49.059Z,8.23
2023-05-21T20:46:17.345Z,9.40
2023-05-21T20:48:44.823Z,9.38
2023-05-21T20:51:12.182Z,8.50
2023-05-21T20:53:39.353Z,7.97
2023-05-21T20:56:08.305Z,7.37
2023-05-21T20:58:35.554Z,7.50
2023-05-21T21:01:03.864Z,7.87
2023-05-21T21:03:34.288Z,8.50
2023-05-21T21:06:01.627Z,7.93
2023-05-21T21:08:28.783Z,9.68
2023-05-21T21:10:56.392Z,7.37
2023-05-21T21:13:23.522Z,7.12
2023-05-21T21:15:50.760Z,6.70
2023-05-21T21:18:18.186Z,7.90
2023-05-21T21:20:49.520Z,7.40
2023-05-21T21:23:16.930Z,7.87
2023-05-21T21:25:44.441Z,7.20
2023-05-21T21:28:11.711Z,6.97
2023-05-21T21:30:40.992Z,7.10
2023-05-21T21:33:08.800Z,7.12
2023-05-21T21:35:36.005Z,7.55
2023-05-21T21:38:04.916Z,7.62
2023-05-21T21:40:32.397Z,7.30
2023-05-21T21:42:59.596Z,7.82
2023-05-21T21:45:26.814Z,8.48
2023-05-21T21:47:54.279Z,7.20
2023-05-21T21:50:21.467Z,7.00
2023-05-21T21:52:48.985Z,7.57
2023-05-21T21:55:16.477Z,9.57
2023-05-21T21:57:43.590Z,6.97
2023-05-21T22:00:20.944Z,7.03
2023-05-21T22:02:48.364Z,6.62
2023-05-21T22:05:16.412Z,6.55
2023-05-21T22:07:47.041Z,6.72
2023-05-21T22:10:16.125Z,6.03
2023-05-21T22:12:44.172Z,6.82
2023-05-21T22:15:18.238Z,6.40
2023-05-21T22:17:47.407Z,6.57
2023-05-21T22:20:15.105Z,6.30
2023-05-21T22:22:42.217Z,6.78
2023-05-21T22:25:09.765Z,6.68
2023-05-21T22:27:36.871Z,6.22
2023-05-21T22:30:04.966Z,6.72
2023-05-21T22:32:32.654Z,6.35
2023-05-21T22:34:59.754Z,7.70
2023-05-21T22:37:26.873Z,7.90
2023-05-21T22:39:54.348Z,7.18
2023-05-21T22:42:21.575Z,7.45
2023-05-21T22:44:48.685Z,7.47
2023-05-21T22:47:16.285Z,7.10
2023-05-21T22:49:43.632Z,7.95
2023-05-21T22:52:10.778Z,7.80
2023-05-21T22:54:38.192Z,7.72
2023-05-21T22:57:05.667Z,7.12
2023-05-21T22:59:33.217Z,7.70
2023-05-21T23:02:00.867Z,7.25
2023-05-21T23:04:43.288Z,7.00
2023-05-21T23:07:12.121Z,7.73
2023-05-21T23:09:39.383Z,7.37
2023-05-21T23:12:07.068Z,7.47
2023-05-21T23:14:34.490Z,7.55
2023-05-21T23:17:02.303Z,6.97
2023-05-21T23:19:29.953Z,6.90
2023-05-21T23:21:57.459Z,6.62
2023-05-21T23:24:24.615Z,6.70
2023-05-21T23:26:52.409Z,7.30
2023-05-21T23:29:19.846Z,7.28
2023-05-21T23:31:47.269Z,6.97
2023-05-21T23:34:14.467Z,7.00
2023-05-21T23:36:41.896Z,6.35
2023-05-21T23:39:09.359Z,6.32
2023-05-21T23:41:37.413Z,6.53
2023-05-21T23:44:04.910Z,6.32
2023-05-21T23:46:32.068Z,5.72
2023-05-21T23:48:59.180Z,5.75
2023-05-21T23:51:26.678Z,6.20
2023-05-21T23:53:54.120Z,6.45
2023-05-21T23:56:21.248Z,5.53
2023-05-21T23:58:48.610Z,6.18
